sensor_id;sensor_type;location;lat;lon;timestamp;temperature;humidity
2603;DHT22;1311;47.966;7.958;2022-12-24T00:00:12;12.80;99.90
2603;DHT22;1311;47.966;7.958;2022-12-24T00:02:39;12.80;99.90
2603;DHT22;1311;47.966;7.958;2022-12-24T00:05:07;12.80;99.90
2603;DHT22;1311;47.966;7.958;2022-12-24T00:07:35;12.80;99.90
2603;DHT22;1311;47.966;7.958;2022-12-24T00:10:02;12.80;99.90
2603;DHT22;1311;47.966;7.958;2022-12-24T00:12:28;12.90;99.90
2603;DHT22;1311;47.966;7.958;2022-12-24T00:14:55;12.80;99.90
2603;DHT22;1311;47.966;7.958;2022-12-24T00:17:22;12.80;99.90
2603;DHT22;1311;47.966;7.958;2022-12-24T00:19:49;12.70;99.90
2603;DHT22;1311;47.966;7.958;2022-12-24T00:22:17;12.70;99.90
2603;DHT22;1311;47.966;7.958;2022-12-24T00:24:43;12.70;99.90
2603;DHT22;1311;47.966;7.958;2022-12-24T00:27:10;12.70;99.90
2603;DHT22;1311;47.966;7.958;2022-12-24T00:29:37;12.60;99.90
2603;DHT22;1311;47.966;7.958;2022-12-24T00:32:04;12.70;99.90
2603;DHT22;1311;47.966;7.958;2022-12-24T00:34:34;12.60;99.90
2603;DHT22;1311;47.966;7.958;2022-12-24T00:37:01;12.60;99.90
2603;DHT22;1311;47.966;7.958;2022-12-24T00:39:29;12.50;99.90
2603;DHT22;1311;47.966;7.958;2022-12-24T00:41:56;12.50;99.90
2603;DHT22;1311;47.966;7.958;2022-12-24T00:44:23;12.60;99.90
2603;DHT22;1311;47.966;7.958;2022-12-24T00:46:49;12.50;99.90
2603;DHT22;1311;47.966;7.958;2022-12-24T00:49:17;12.50;99.90
2603;DHT22;1311;47.966;7.958;2022-12-24T00:51:43;12.50;99.90
2603;DHT22;1311;47.966;7.958;2022-12-24T00:54:11;12.50;99.90
2603;DHT22;1311;47.966;7.958;2022-12-24T00:56:40;12.60;99.90
2603;DHT22;1311;47.966;7.958;2022-12-24T00:59:07;12.60;99.90
2603;DHT22;1311;47.966;7.958;2022-12-24T01:01:33;12.50;99.90
2603;DHT22;1311;47.966;7.958;2022-12-24T01:04:01;12.60;99.90
2603;DHT22;1311;47.966;7.958;2022-12-24T01:06:42;12.60;99.90
2603;DHT22;1311;47.966;7.958;2022-12-24T01:09:09;12.60;99.90
2603;DHT22;1311;47.966;7.958;2022-12-24T01:11:36;12.60;99.90
2603;DHT22;1311;47.966;7.958;2022-12-24T01:14:04;12.60;99.90
2603;DHT22;1311;47.966;7.958;2022-12-24T01:16:31;12.70;99.90
2603;DHT22;1311;47.966;7.958;2022-12-24T01:18:57;12.70;99.90
2603;DHT22;1311;47.966;7.958;2022-12-24T01:21:24;12.60;99.90
2603;DHT22;1311;47.966;7.958;2022-12-24T01:23:51;12.60;99.90
2603;DHT22;1311;47.966;7.958;2022-12-24T01:26:18;12.60;99.90
2603;DHT22;1311;47.966;7.958;2022-12-24T01:28:45;12.70;99.90
2603;DHT22;1311;47.966;7.958;2022-12-24T01:31:15;12.70;99.90
2603;DHT22;1311;47.966;7.958;2022-12-24T01:33:43;12.70;99.90
2603;DHT22;1311;47.966;7.958;2022-12-24T01:36:10;12.60;99.90
2603;DHT22;1311;47.966;7.958;2022-12-24T01:38:37;12.60;99.90
2603;DHT22;1311;47.966;7.958;2022-12-24T01:41:05;12.60;99.90
2603;DHT22;1311;47.966;7.958;2022-12-24T01:43:49;12.60;99.90
2603;DHT22;1311;47.966;7.958;2022-12-24T01:46:19;12.60;99.90
2603;DHT22;1311;47.966;7.958;2022-12-24T01:48:52;12.60;99.90
2603;DHT22;1311;47.966;7.958;2022-12-24T01:51:25;12.50;99.90
2603;DHT22;1311;47.966;7.958;2022-12-24T01:53:57;12.50;99.90
2603;DHT22;1311;47.966;7.958;2022-12-24T01:56:25;12.50;99.90
2603;DHT22;1311;47.966;7.958;2022-12-24T01:58:56;12.50;99.90
2603;DHT22;1311;47.966;7.958;2022-12-24T02:01:24;12.50;99.90
2603;DHT22;1311;47.966;7.958;2022-12-24T02:03:51;12.50;99.90
2603;DHT22;1311;47.966;7.958;2022-12-24T02:06:19;12.50;99.90
2603;DHT22;1311;47.966;7.958;2022-12-24T02:08:47;12.50;99.90
2603;DHT22;1311;47.966;7.958;2022-12-24T02:11:16;12.50;99.90
2603;DHT22;1311;47.966;7.958;2022-12-24T02:13:45;12.40;99.90
2603;DHT22;1311;47.966;7.958;2022-12-24T02:16:22;12.40;99.90
2603;DHT22;1311;47.966;7.958;2022-12-24T02:18:59;12.40;99.90
2603;DHT22;1311;47.966;7.958;2022-12-24T02:21:43;12.30;99.90
2603;DHT22;1311;47.966;7.958;2022-12-24T02:24:28;12.40;99.90
2603;DHT22;1311;47.966;7.958;2022-12-24T02:27:20;12.40;99.90
2603;DHT22;1311;47.966;7.958;2022-12-24T02:30:04;12.30;99.90
2603;DHT22;1311;47.966;7.958;2022-12-24T02:32:35;12.30;99.90
2603;DHT22;1311;47.966;7.958;2022-12-24T02:35:09;12.20;99.90
2603;DHT22;1311;47.966;7.958;2022-12-24T02:37:40;12.20;99.90
2603;DHT22;1311;47.966;7.958;2022-12-24T02:40:12;12.10;99.90
2603;DHT22;1311;47.966;7.958;2022-12-24T02:42:42;12.20;99.90
2603;DHT22;1311;47.966;7.958;2022-12-24T02:45:13;12.20;99.90
2603;DHT22;1311;47.966;7.958;2022-12-24T02:47:43;12.10;99.90
2603;DHT22;1311;47.966;7.958;2022-12-24T02:50:12;11.90;99.90
2603;DHT22;1311;47.966;7.958;2022-12-24T02:52:41;11.90;99.90
2603;DHT22;1311;47.966;7.958;2022-12-24T02:55:11;11.80;99.90
2603;DHT22;1311;47.966;7.958;2022-12-24T02:57:53;11.80;99.90
2603;DHT22;1311;47.966;7.958;2022-12-24T03:00:23;11.70;99.90
2603;DHT22;1311;47.966;7.958;2022-12-24T03:03:15;11.60;99.90
2603;DHT22;1311;47.966;7.958;2022-12-24T03:05:48;11.40;99.90
2603;DHT22;1311;47.966;7.958;2022-12-24T03:08:22;11.50;99.90
2603;DHT22;1311;47.966;7.958;2022-12-24T03:10:56;11.60;99.90
2603;DHT22;1311;47.966;7.958;2022-12-24T03:13:26;11.50;99.90
2603;DHT22;1311;47.966;7.958;2022-12-24T03:15:55;11.50;99.90
2603;DHT22;1311;47.966;7.958;2022-12-24T03:18:24;11.40;99.90
2603;DHT22;1311;47.966;7.958;2022-12-24T03:20:55;11.40;99.90
2603;DHT22;1311;47.966;7.958;2022-12-24T03:23:23;11.40;99.90
2603;DHT22;1311;47.966;7.958;2022-12-24T03:25:50;11.40;99.90
2603;DHT22;1311;47.966;7.958;2022-12-24T03:28:18;11.30;99.90
2603;DHT22;1311;47.966;7.958;2022-12-24T03:30:47;11.40;99.90
2603;DHT22;1311;47.966;7.958;2022-12-24T03:33:16;11.30;99.90
2603;DHT22;1311;47.966;7.958;2022-12-24T03:35:43;11.30;99.90
2603;DHT22;1311;47.966;7.958;2022-12-24T03:38:10;11.20;99.90
2603;DHT22;1311;47.966;7.958;2022-12-24T03:40:36;11.20;99.90
2603;DHT22;1311;47.966;7.958;2022-12-24T03:43:03;11.30;99.90
2603;DHT22;1311;47.966;7.958;2022-12-24T03:45:30;11.40;99.90
2603;DHT22;1311;47.966;7.958;2022-12-24T03:47:57;11.50;99.90
2603;DHT22;1311;47.966;7.958;2022-12-24T03:50:25;11.50;99.90
2603;DHT22;1311;47.966;7.958;2022-12-24T03:52:53;11.60;99.90
2603;DHT22;1311;47.966;7.958;2022-12-24T03:55:20;11.60;99.90
2603;DHT22;1311;47.966;7.958;2022-12-24T03:57:47;11.70;99.90
2603;DHT22;1311;47.966;7.958;2022-12-24T04:00:14;11.70;99.90
2603;DHT22;1311;47.966;7.958;2022-12-24T04:02:41;11.70;99.90
2603;DHT22;1311;47.966;7.958;2022-12-24T04:05:12;11.70;99.90
2603;DHT22;1311;47.966;7.958;2022-12-24T04:07:41;11.70;99.90
2603;DHT22;1311;47.966;7.958;2022-12-24T04:10:09;11.70;99.90
2603;DHT22;1311;47.966;7.958;2022-12-24T04:12:36;11.70;99.90
2603;DHT22;1311;47.966;7.958;2022-12-24T04:15:04;11.80;99.90
2603;DHT22;1311;47.966;7.958;2022-12-24T04:17:30;11.80;99.90
2603;DHT22;1311;47.966;7.958;2022-12-24T04:19:57;11.80;99.90
2603;DHT22;1311;47.966;7.958;2022-12-24T04:22:24;11.80;99.90
2603;DHT22;1311;47.966;7.958;2022-12-24T04:24:52;11.80;99.90
2603;DHT22;1311;47.966;7.958;2022-12-24T04:27:19;11.90;99.90
2603;DHT22;1311;47.966;7.958;2022-12-24T04:29:46;11.90;99.90
2603;DHT22;1311;47.966;7.958;2022-12-24T04:32:13;11.90;99.90
2603;DHT22;1311;47.966;7.958;2022-12-24T04:34:40;11.90;99.90
2603;DHT22;1311;47.966;7.958;2022-12-24T04:37:07;11.90;99.90
2603;DHT22;1311;47.966;7.958;2022-12-24T04:39:34;11.90;99.90
2603;DHT22;1311;47.966;7.958;2022-12-24T04:42:03;11.90;99.90
2603;DHT22;1311;47.966;7.958;2022-12-24T04:44:29;11.90;99.90
2603;DHT22;1311;47.966;7.958;2022-12-24T04:46:56;11.90;99.90
2603;DHT22;1311;47.966;7.958;2022-12-24T04:49:23;11.90;99.90
2603;DHT22;1311;47.966;7.958;2022-12-24T04:51:49;11.90;99.90
2603;DHT22;1311;47.966;7.958;2022-12-24T04:54:16;11.90;99.90
2603;DHT22;1311;47.966;7.958;2022-12-24T04:56:43;11.90;99.90
2603;DHT22;1311;47.966;7.958;2022-12-24T04:59:11;11.90;99.90
2603;DHT22;1311;47.966;7.958;2022-12-24T05:01:38;11.90;99.90
2603;DHT22;1311;47.966;7.958;2022-12-24T05:04:04;11.90;99.90
2603;DHT22;1311;47.966;7.958;2022-12-24T05:06:32;11.80;99.90
2603;DHT22;1311;47.966;7.958;2022-12-24T05:08:59;11.90;99.90
2603;DHT22;1311;47.966;7.958;2022-12-24T05:11:26;11.90;99.90
2603;DHT22;1311;47.966;7.958;2022-12-24T05:13:53;11.90;99.90
2603;DHT22;1311;47.966;7.958;2022-12-24T05:16:22;11.80;99.90
2603;DHT22;1311;47.966;7.958;2022-12-24T05:18:50;11.80;99.90
2603;DHT22;1311;47.966;7.958;2022-12-24T05:21:18;11.80;99.90
2603;DHT22;1311;47.966;7.958;2022-12-24T05:23:46;11.80;99.90
2603;DHT22;1311;47.966;7.958;2022-12-24T05:26:33;11.80;99.90
2603;DHT22;1311;47.966;7.958;2022-12-24T05:29:01;11.90;99.90
2603;DHT22;1311;47.966;7.958;2022-12-24T05:31:31;11.90;99.90
2603;DHT22;1311;47.966;7.958;2022-12-24T05:33:58;11.90;99.90
2603;DHT22;1311;47.966;7.958;2022-12-24T05:36:25;11.80;99.90
2603;DHT22;1311;47.966;7.958;2022-12-24T05:38:52;11.80;99.90
2603;DHT22;1311;47.966;7.958;2022-12-24T05:41:19;11.80;99.90
2603;DHT22;1311;47.966;7.958;2022-12-24T05:43:46;11.70;99.90
2603;DHT22;1311;47.966;7.958;2022-12-24T05:46:16;11.70;99.90
2603;DHT22;1311;47.966;7.958;2022-12-24T05:48:45;11.70;99.90
2603;DHT22;1311;47.966;7.958;2022-12-24T05:51:13;11.70;99.90
2603;DHT22;1311;47.966;7.958;2022-12-24T05:53:40;11.70;99.90
2603;DHT22;1311;47.966;7.958;2022-12-24T05:56:09;11.60;99.90
2603;DHT22;1311;47.966;7.958;2022-12-24T05:58:37;11.60;99.90
2603;DHT22;1311;47.966;7.958;2022-12-24T06:01:04;11.70;99.90
2603;DHT22;1311;47.966;7.958;2022-12-24T06:03:31;11.60;99.90
2603;DHT22;1311;47.966;7.958;2022-12-24T06:06:01;11.60;99.90
2603;DHT22;1311;47.966;7.958;2022-12-24T06:08:29;11.70;99.90
2603;DHT22;1311;47.966;7.958;2022-12-24T06:10:56;11.60;99.90
2603;DHT22;1311;47.966;7.958;2022-12-24T06:13:23;11.60;99.90
2603;DHT22;1311;47.966;7.958;2022-12-24T06:15:50;11.70;99.90
2603;DHT22;1311;47.966;7.958;2022-12-24T06:18:19;11.70;99.90
2603;DHT22;1311;47.966;7.958;2022-12-24T06:20:49;11.60;99.90
2603;DHT22;1311;47.966;7.958;2022-12-24T06:23:17;11.60;99.90
2603;DHT22;1311;47.966;7.958;2022-12-24T06:25:44;11.60;99.90
2603;DHT22;1311;47.966;7.958;2022-12-24T06:28:11;11.70;99.90
2603;DHT22;1311;47.966;7.958;2022-12-24T06:30:38;11.60;99.90
2603;DHT22;1311;47.966;7.958;2022-12-24T06:33:04;11.70;99.90
2603;DHT22;1311;47.966;7.958;2022-12-24T06:35:31;11.70;99.90
2603;DHT22;1311;47.966;7.958;2022-12-24T06:37:58;11.70;99.90
2603;DHT22;1311;47.966;7.958;2022-12-24T06:40:26;11.60;99.90
2603;DHT22;1311;47.966;7.958;2022-12-24T06:42:53;11.60;99.90
2603;DHT22;1311;47.966;7.958;2022-12-24T06:45:20;11.60;99.90
2603;DHT22;1311;47.966;7.958;2022-12-24T06:47:46;11.60;99.90
2603;DHT22;1311;47.966;7.958;2022-12-24T06:50:13;11.50;99.90
2603;DHT22;1311;47.966;7.958;2022-12-24T06:52:40;11.50;99.90
2603;DHT22;1311;47.966;7.958;2022-12-24T06:55:07;11.60;99.90
2603;DHT22;1311;47.966;7.958;2022-12-24T06:57:35;11.50;99.90
2603;DHT22;1311;47.966;7.958;2022-12-24T07:00:03;11.50;99.90
2603;DHT22;1311;47.966;7.958;2022-12-24T07:02:30;11.50;99.90
2603;DHT22;1311;47.966;7.958;2022-12-24T07:04:57;11.50;99.90
2603;DHT22;1311;47.966;7.958;2022-12-24T07:07:23;11.60;99.90
2603;DHT22;1311;47.966;7.958;2022-12-24T07:09:50;11.50;99.90
2603;DHT22;1311;47.966;7.958;2022-12-24T07:12:17;11.50;99.90
2603;DHT22;1311;47.966;7.958;2022-12-24T07:14:45;11.50;99.90
2603;DHT22;1311;47.966;7.958;2022-12-24T07:17:12;11.60;99.90
2603;DHT22;1311;47.966;7.958;2022-12-24T07:19:38;11.60;99.90
2603;DHT22;1311;47.966;7.958;2022-12-24T07:22:05;11.60;99.90
2603;DHT22;1311;47.966;7.958;2022-12-24T07:24:32;11.50;99.90
2603;DHT22;1311;47.966;7.958;2022-12-24T07:26:59;11.50;99.90
2603;DHT22;1311;47.966;7.958;2022-12-24T07:29:25;11.50;99.90
2603;DHT22;1311;47.966;7.958;2022-12-24T07:31:53;11.50;99.90
2603;DHT22;1311;47.966;7.958;2022-12-24T07:34:20;11.50;99.90
2603;DHT22;1311;47.966;7.958;2022-12-24T07:36:47;11.50;99.90
2603;DHT22;1311;47.966;7.958;2022-12-24T07:39:14;11.50;99.90
2603;DHT22;1311;47.966;7.958;2022-12-24T07:41:40;11.50;99.90
2603;DHT22;1311;47.966;7.958;2022-12-24T07:44:10;11.50;99.90
2603;DHT22;1311;47.966;7.958;2022-12-24T07:46:38;11.50;99.90
2603;DHT22;1311;47.966;7.958;2022-12-24T07:49:06;11.60;99.90
2603;DHT22;1311;47.966;7.958;2022-12-24T07:51:33;11.60;99.90
2603;DHT22;1311;47.966;7.958;2022-12-24T07:54:00;11.60;99.90
2603;DHT22;1311;47.966;7.958;2022-12-24T07:56:29;11.70;99.90
2603;DHT22;1311;47.966;7.958;2022-12-24T07:58:56;11.60;99.90
2603;DHT22;1311;47.966;7.958;2022-12-24T08:01:23;11.60;99.90
2603;DHT22;1311;47.966;7.958;2022-12-24T08:03:50;11.50;99.90
2603;DHT22;1311;47.966;7.958;2022-12-24T08:06:20;11.50;99.90
2603;DHT22;1311;47.966;7.958;2022-12-24T08:08:47;11.50;99.90
2603;DHT22;1311;47.966;7.958;2022-12-24T08:11:13;11.50;99.90
2603;DHT22;1311;47.966;7.958;2022-12-24T08:13:40;11.60;99.90
2603;DHT22;1311;47.966;7.958;2022-12-24T08:16:07;11.70;99.90
2603;DHT22;1311;47.966;7.958;2022-12-24T08:18:34;11.70;99.90
2603;DHT22;1311;47.966;7.958;2022-12-24T08:21:01;11.80;99.90
2603;DHT22;1311;47.966;7.958;2022-12-24T08:23:29;11.80;99.90
2603;DHT22;1311;47.966;7.958;2022-12-24T08:25:56;11.90;99.90
2603;DHT22;1311;47.966;7.958;2022-12-24T08:28:22;12.00;99.90
2603;DHT22;1311;47.966;7.958;2022-12-24T08:30:50;12.10;99.90
2603;DHT22;1311;47.966;7.958;2022-12-24T08:33:17;12.20;99.90
2603;DHT22;1311;47.966;7.958;2022-12-24T08:35:47;12.20;99.90
2603;DHT22;1311;47.966;7.958;2022-12-24T08:38:14;12.30;99.90
2603;DHT22;1311;47.966;7.958;2022-12-24T08:40:42;12.30;99.90
2603;DHT22;1311;47.966;7.958;2022-12-24T08:43:09;12.30;99.90
2603;DHT22;1311;47.966;7.958;2022-12-24T08:45:38;12.30;99.90
2603;DHT22;1311;47.966;7.958;2022-12-24T08:48:05;12.30;99.90
2603;DHT22;1311;47.966;7.958;2022-12-24T08:50:32;12.40;99.90
2603;DHT22;1311;47.966;7.958;2022-12-24T08:52:59;12.40;99.90
2603;DHT22;1311;47.966;7.958;2022-12-24T08:55:25;12.40;99.90
2603;DHT22;1311;47.966;7.958;2022-12-24T08:57:54;12.40;99.90
2603;DHT22;1311;47.966;7.958;2022-12-24T09:00:20;12.30;99.90
2603;DHT22;1311;47.966;7.958;2022-12-24T09:02:47;12.20;99.90
2603;DHT22;1311;47.966;7.958;2022-12-24T09:05:14;12.20;99.90
2603;DHT22;1311;47.966;7.958;2022-12-24T09:07:42;12.20;99.90
2603;DHT22;1311;47.966;7.958;2022-12-24T09:10:10;12.20;99.90
2603;DHT22;1311;47.966;7.958;2022-12-24T09:12:37;12.30;99.90
2603;DHT22;1311;47.966;7.958;2022-12-24T09:15:06;12.30;99.90
2603;DHT22;1311;47.966;7.958;2022-12-24T09:17:34;12.40;99.90
2603;DHT22;1311;47.966;7.958;2022-12-24T09:20:01;12.50;99.90
2603;DHT22;1311;47.966;7.958;2022-12-24T09:22:28;12.60;99.90
2603;DHT22;1311;47.966;7.958;2022-12-24T09:24:54;12.70;99.90
2603;DHT22;1311;47.966;7.958;2022-12-24T09:27:21;12.80;99.90
2603;DHT22;1311;47.966;7.958;2022-12-24T09:29:49;12.80;99.90
2603;DHT22;1311;47.966;7.958;2022-12-24T09:32:17;12.90;99.90
2603;DHT22;1311;47.966;7.958;2022-12-24T09:34:44;12.90;99.90
2603;DHT22;1311;47.966;7.958;2022-12-24T09:37:10;12.90;99.90
2603;DHT22;1311;47.966;7.958;2022-12-24T09:39:37;13.00;99.90
2603;DHT22;1311;47.966;7.958;2022-12-24T09:42:11;12.90;99.90
2603;DHT22;1311;47.966;7.958;2022-12-24T09:44:42;12.90;99.90
2603;DHT22;1311;47.966;7.958;2022-12-24T09:47:21;12.90;99.90
2603;DHT22;1311;47.966;7.958;2022-12-24T09:49:51;12.90;99.90
2603;DHT22;1311;47.966;7.958;2022-12-24T09:52:25;12.90;99.90
2603;DHT22;1311;47.966;7.958;2022-12-24T09:54:59;12.90;99.90
2603;DHT22;1311;47.966;7.958;2022-12-24T09:57:30;12.90;99.90
2603;DHT22;1311;47.966;7.958;2022-12-24T09:59:58;12.80;99.90
2603;DHT22;1311;47.966;7.958;2022-12-24T10:02:26;12.80;99.90
2603;DHT22;1311;47.966;7.958;2022-12-24T10:04:54;12.90;99.90
2603;DHT22;1311;47.966;7.958;2022-12-24T10:07:30;13.00;99.90
2603;DHT22;1311;47.966;7.958;2022-12-24T10:10:05;13.10;99.90
2603;DHT22;1311;47.966;7.958;2022-12-24T10:12:43;13.20;99.90
2603;DHT22;1311;47.966;7.958;2022-12-24T10:15:20;13.30;99.90
2603;DHT22;1311;47.966;7.958;2022-12-24T10:18:03;13.40;99.90
2603;DHT22;1311;47.966;7.958;2022-12-24T10:20:43;13.40;99.90
2603;DHT22;1311;47.966;7.958;2022-12-24T10:23:17;13.50;99.90
2603;DHT22;1311;47.966;7.958;2022-12-24T10:25:50;13.60;99.90
2603;DHT22;1311;47.966;7.958;2022-12-24T10:28:22;13.60;99.90
2603;DHT22;1311;47.966;7.958;2022-12-24T10:30:54;13.70;99.90
2603;DHT22;1311;47.966;7.958;2022-12-24T10:33:31;13.80;99.90
2603;DHT22;1311;47.966;7.958;2022-12-24T10:35:58;13.70;99.90
2603;DHT22;1311;47.966;7.958;2022-12-24T10:38:25;13.70;99.90
2603;DHT22;1311;47.966;7.958;2022-12-24T10:40:53;13.60;99.90
2603;DHT22;1311;47.966;7.958;2022-12-24T10:43:23;13.40;99.90
2603;DHT22;1311;47.966;7.958;2022-12-24T10:45:54;13.30;99.90
2603;DHT22;1311;47.966;7.958;2022-12-24T10:48:26;13.30;99.90
2603;DHT22;1311;47.966;7.958;2022-12-24T10:50:59;13.40;99.90
2603;DHT22;1311;47.966;7.958;2022-12-24T10:53:37;13.50;99.90
2603;DHT22;1311;47.966;7.958;2022-12-24T10:56:08;13.80;99.90
2603;DHT22;1311;47.966;7.958;2022-12-24T10:58:35;14.00;99.90
2603;DHT22;1311;47.966;7.958;2022-12-24T11:01:02;14.30;99.90
2603;DHT22;1311;47.966;7.958;2022-12-24T11:03:32;14.30;99.90
2603;DHT22;1311;47.966;7.958;2022-12-24T11:06:05;14.20;99.90
2603;DHT22;1311;47.966;7.958;2022-12-24T11:08:33;14.30;99.90
2603;DHT22;1311;47.966;7.958;2022-12-24T11:11:03;14.30;99.90
2603;DHT22;1311;47.966;7.958;2022-12-24T11:13:32;14.30;99.90
2603;DHT22;1311;47.966;7.958;2022-12-24T11:16:03;14.20;99.90
2603;DHT22;1311;47.966;7.958;2022-12-24T11:18:33;14.20;99.90
2603;DHT22;1311;47.966;7.958;2022-12-24T11:21:02;14.20;99.90
2603;DHT22;1311;47.966;7.958;2022-12-24T11:23:30;14.20;99.90
2603;DHT22;1311;47.966;7.958;2022-12-24T11:25:57;14.20;99.90
2603;DHT22;1311;47.966;7.958;2022-12-24T11:28:26;14.20;99.90
2603;DHT22;1311;47.966;7.958;2022-12-24T11:31:00;14.00;99.90
2603;DHT22;1311;47.966;7.958;2022-12-24T11:33:28;14.00;99.90
2603;DHT22;1311;47.966;7.958;2022-12-24T11:36:05;14.10;99.90
2603;DHT22;1311;47.966;7.958;2022-12-24T11:38:34;14.30;99.90
2603;DHT22;1311;47.966;7.958;2022-12-24T11:41:06;14.30;99.90
2603;DHT22;1311;47.966;7.958;2022-12-24T11:43:36;14.20;99.90
2603;DHT22;1311;47.966;7.958;2022-12-24T11:46:34;14.40;99.90
2603;DHT22;1311;47.966;7.958;2022-12-24T11:49:12;14.30;99.90
2603;DHT22;1311;47.966;7.958;2022-12-24T11:51:57;14.20;99.90
2603;DHT22;1311;47.966;7.958;2022-12-24T11:54:27;14.10;99.90
2603;DHT22;1311;47.966;7.958;2022-12-24T11:56:56;14.10;99.90
2603;DHT22;1311;47.966;7.958;2022-12-24T11:59:29;14.00;99.90
2603;DHT22;1311;47.966;7.958;2022-12-24T12:02:00;13.90;99.90
2603;DHT22;1311;47.966;7.958;2022-12-24T12:04:30;14.00;99.90
2603;DHT22;1311;47.966;7.958;2022-12-24T12:07:02;13.90;99.90
2603;DHT22;1311;47.966;7.958;2022-12-24T12:09:32;13.90;99.90
2603;DHT22;1311;47.966;7.958;2022-12-24T12:12:05;13.80;99.90
2603;DHT22;1311;47.966;7.958;2022-12-24T12:14:36;13.70;99.90
2603;DHT22;1311;47.966;7.958;2022-12-24T12:17:15;13.70;99.90
2603;DHT22;1311;47.966;7.958;2022-12-24T12:19:48;13.70;99.90
2603;DHT22;1311;47.966;7.958;2022-12-24T12:22:23;13.70;99.90
2603;DHT22;1311;47.966;7.958;2022-12-24T12:24:55;13.70;99.90
2603;DHT22;1311;47.966;7.958;2022-12-24T12:27:27;13.80;99.90
2603;DHT22;1311;47.966;7.958;2022-12-24T12:29:59;13.90;99.90
2603;DHT22;1311;47.966;7.958;2022-12-24T12:32:34;14.00;99.90
2603;DHT22;1311;47.966;7.958;2022-12-24T12:35:09;14.10;99.90
2603;DHT22;1311;47.966;7.958;2022-12-24T12:37:43;14.10;99.90
2603;DHT22;1311;47.966;7.958;2022-12-24T12:40:12;14.10;99.90
2603;DHT22;1311;47.966;7.958;2022-12-24T12:42:46;14.20;99.90
2603;DHT22;1311;47.966;7.958;2022-12-24T12:45:32;14.00;99.90
2603;DHT22;1311;47.966;7.958;2022-12-24T12:48:19;14.00;99.90
2603;DHT22;1311;47.966;7.958;2022-12-24T12:50:52;14.10;99.90
2603;DHT22;1311;47.966;7.958;2022-12-24T12:53:43;14.00;99.90
2603;DHT22;1311;47.966;7.958;2022-12-24T12:56:22;14.10;99.90
2603;DHT22;1311;47.966;7.958;2022-12-24T12:58:53;14.10;99.90
2603;DHT22;1311;47.966;7.958;2022-12-24T13:01:28;14.00;99.90
2603;DHT22;1311;47.966;7.958;2022-12-24T13:04:09;14.00;99.90
2603;DHT22;1311;47.966;7.958;2022-12-24T13:07:15;13.90;99.90
2603;DHT22;1311;47.966;7.958;2022-12-24T13:10:04;13.90;99.90
2603;DHT22;1311;47.966;7.958;2022-12-24T13:12:46;14.00;99.90
2603;DHT22;1311;47.966;7.958;2022-12-24T13:15:36;14.00;99.90
2603;DHT22;1311;47.966;7.958;2022-12-24T13:18:26;14.00;99.90
2603;DHT22;1311;47.966;7.958;2022-12-24T13:20:58;14.00;99.90
2603;DHT22;1311;47.966;7.958;2022-12-24T13:23:26;14.10;99.90
2603;DHT22;1311;47.966;7.958;2022-12-24T13:25:56;14.10;99.90
2603;DHT22;1311;47.966;7.958;2022-12-24T13:28:32;14.10;99.90
2603;DHT22;1311;47.966;7.958;2022-12-24T13:31:27;14.00;99.90
2603;DHT22;1311;47.966;7.958;2022-12-24T13:33:57;14.10;99.90
2603;DHT22;1311;47.966;7.958;2022-12-24T13:36:24;14.10;99.90
2603;DHT22;1311;47.966;7.958;2022-12-24T13:38:52;14.00;99.90
2603;DHT22;1311;47.966;7.958;2022-12-24T13:41:49;14.00;99.90
2603;DHT22;1311;47.966;7.958;2022-12-24T13:44:26;14.00;99.90
2603;DHT22;1311;47.966;7.958;2022-12-24T13:49:44;13.80;99.90
2603;DHT22;1311;47.966;7.958;2022-12-24T13:52:27;13.70;99.90
2603;DHT22;1311;47.966;7.958;2022-12-24T13:55:05;13.70;99.90
2603;DHT22;1311;47.966;7.958;2022-12-24T13:57:37;13.60;99.90
2603;DHT22;1311;47.966;7.958;2022-12-24T14:00:21;13.60;99.90
2603;DHT22;1311;47.966;7.958;2022-12-24T14:02:50;13.60;99.90
2603;DHT22;1311;47.966;7.958;2022-12-24T14:05:31;13.60;99.90
2603;DHT22;1311;47.966;7.958;2022-12-24T14:08:00;13.60;99.90
2603;DHT22;1311;47.966;7.958;2022-12-24T14:10:30;13.60;99.90
2603;DHT22;1311;47.966;7.958;2022-12-24T14:13:01;13.60;99.90
2603;DHT22;1311;47.966;7.958;2022-12-24T14:16:01;13.60;99.90
2603;DHT22;1311;47.966;7.958;2022-12-24T14:18:29;13.50;99.90
2603;DHT22;1311;47.966;7.958;2022-12-24T14:20:59;13.50;99.90
2603;DHT22;1311;47.966;7.958;2022-12-24T14:23:43;13.40;99.90
2603;DHT22;1311;47.966;7.958;2022-12-24T14:26:15;13.40;99.90
2603;DHT22;1311;47.966;7.958;2022-12-24T14:28:46;13.30;99.90
2603;DHT22;1311;47.966;7.958;2022-12-24T14:31:17;13.30;99.90
2603;DHT22;1311;47.966;7.958;2022-12-24T14:33:44;13.10;99.90
2603;DHT22;1311;47.966;7.958;2022-12-24T14:36:13;13.10;99.90
2603;DHT22;1311;47.966;7.958;2022-12-24T14:38:42;13.10;99.90
2603;DHT22;1311;47.966;7.958;2022-12-24T14:41:20;13.00;99.90
2603;DHT22;1311;47.966;7.958;2022-12-24T14:43:57;13.00;99.90
2603;DHT22;1311;47.966;7.958;2022-12-24T14:46:30;13.00;99.90
2603;DHT22;1311;47.966;7.958;2022-12-24T14:49:04;12.90;99.90
2603;DHT22;1311;47.966;7.958;2022-12-24T14:51:35;12.90;99.90
2603;DHT22;1311;47.966;7.958;2022-12-24T14:54:16;12.80;99.90
2603;DHT22;1311;47.966;7.958;2022-12-24T14:56:46;12.80;99.90
2603;DHT22;1311;47.966;7.958;2022-12-24T14:59:15;12.70;99.90
2603;DHT22;1311;47.966;7.958;2022-12-24T15:01:43;12.70;99.90
2603;DHT22;1311;47.966;7.958;2022-12-24T15:04:16;12.70;99.90
2603;DHT22;1311;47.966;7.958;2022-12-24T15:06:46;12.70;99.90
2603;DHT22;1311;47.966;7.958;2022-12-24T15:09:18;12.60;99.90
2603;DHT22;1311;47.966;7.958;2022-12-24T15:11:47;12.60;99.90
2603;DHT22;1311;47.966;7.958;2022-12-24T15:14:16;12.60;99.90
2603;DHT22;1311;47.966;7.958;2022-12-24T15:16:54;12.50;99.90
2603;DHT22;1311;47.966;7.958;2022-12-24T15:19:24;12.50;99.90
2603;DHT22;1311;47.966;7.958;2022-12-24T15:21:53;12.40;99.90
2603;DHT22;1311;47.966;7.958;2022-12-24T15:24:25;12.40;99.90
2603;DHT22;1311;47.966;7.958;2022-12-24T15:26:53;12.40;99.90
2603;DHT22;1311;47.966;7.958;2022-12-24T15:29:25;12.30;99.90
2603;DHT22;1311;47.966;7.958;2022-12-24T15:31:53;12.30;99.90
2603;DHT22;1311;47.966;7.958;2022-12-24T15:34:26;12.20;99.90
2603;DHT22;1311;47.966;7.958;2022-12-24T15:37:00;12.20;99.90
2603;DHT22;1311;47.966;7.958;2022-12-24T15:39:28;12.10;99.90
2603;DHT22;1311;47.966;7.958;2022-12-24T15:41:55;12.10;99.90
2603;DHT22;1311;47.966;7.958;2022-12-24T15:44:47;12.10;99.90
2603;DHT22;1311;47.966;7.958;2022-12-24T15:47:16;12.10;99.90
2603;DHT22;1311;47.966;7.958;2022-12-24T15:49:47;12.00;99.90
2603;DHT22;1311;47.966;7.958;2022-12-24T15:52:16;12.00;99.90
2603;DHT22;1311;47.966;7.958;2022-12-24T15:54:44;12.00;99.90
2603;DHT22;1311;47.966;7.958;2022-12-24T15:57:21;12.00;99.90
2603;DHT22;1311;47.966;7.958;2022-12-24T15:59:51;12.00;99.90
2603;DHT22;1311;47.966;7.958;2022-12-24T16:02:35;11.90;99.90
2603;DHT22;1311;47.966;7.958;2022-12-24T16:05:33;11.90;99.90
2603;DHT22;1311;47.966;7.958;2022-12-24T16:08:33;11.90;99.90
2603;DHT22;1311;47.966;7.958;2022-12-24T16:11:12;11.80;99.90
2603;DHT22;1311;47.966;7.958;2022-12-24T16:13:49;11.70;99.90
2603;DHT22;1311;47.966;7.958;2022-12-24T16:16:20;11.70;99.90
2603;DHT22;1311;47.966;7.958;2022-12-24T16:18:51;11.70;99.90
2603;DHT22;1311;47.966;7.958;2022-12-24T16:21:22;11.70;99.90
2603;DHT22;1311;47.966;7.958;2022-12-24T16:23:53;11.60;99.90
2603;DHT22;1311;47.966;7.958;2022-12-24T16:26:20;11.70;99.90